Latest Coastal Weather Observations for Mandora

IDW60701

Issued at 12:13 pm WST Friday 24 March 2017 (issued every 10 minutes, with the page automatically refreshed every 10 minutes)

About coastal observations | Map of coastal stations | Coastal observations for WA | Marine services | Other Formats
Station Details ID: 004019 Name: MANDORA Lat: -19.74 Lon: 120.84 Height: 7.5 m
Data from the previous 72 hours. | See also: Recent months at Mandora
Date/Time
WST
Temp
°C
Wind Pressure Rain since
9am
mm
Weather Cloud Vis
km
Sea
Height
m
Swell
Dir  Spd
kts
Gust
kts
hPa Trend Height
m
Period
s
Dir
24/12:00pm 29.9 NNW 9 14 1007.0 - 8.0 Recent precip. - - - - - -
24/11:30am 27.1 WSW 5 9 1007.6 - 7.8 - - - - - - -
24/11:00am 28.7 NW 5 10 1008.0 - 5.4 - - - - - - -
24/10:30am 27.6 SW 5 9 1008.1 - 5.4 - - - - - - -
24/10:00am 27.4 SW 7 9 1008.2 - 0.0 - - - - - - -
24/09:30am 26.5 SW 4 6 1008.1 - 0.0 - - - - - - -
24/09:00am 27.4 WNW 8 13 1007.9 - 64.2 Recent precip. - - - - - -
24/08:30am 27.6 N 4 7 1007.6 - 64.2 - - - - - - -
24/08:00am 27.3 WSW 1 3 1007.2 - 64.0 - - - - - - -
24/07:30am 26.4 WNW 3 4 1007.1 - 64.0 - - - - - - -
24/07:00am 25.9 NW 7 9 1006.8 - 63.8 - - - - - - -
24/06:36am 26.2 NNW 11 24 1006.6 - 51.4 - - - - - - -
24/06:30am 27.0 N 8 11 1006.0 - 50.4 - - - - - - -
24/06:00am 25.9 N 11 15 1006.0 - 50.4 Rain - - - - - -
24/05:30am 26.8 N 9 14 1005.5 - 45.8 - - - - - - -
24/05:00am 26.2 N 13 21 1005.3 - 45.8 - - - - - - -
24/04:50am 26.4 N 15 21 1005.2 - 45.8 - - - - - - -
24/04:30am 27.2 NW 5 8 1005.1 - 44.0 - - - - - - -
24/04:00am 27.4 NNW 7 11 1004.9 - 44.0 - - - - - - -
24/03:30am 27.7 NNW 10 14 1004.8 - 44.0 - - - - - - -
24/03:00am 27.8 NNW 7 11 1004.7 - 44.0 - - - - - - -
24/02:30am 27.4 N 8 11 1004.9 - 44.0 - - - - - - -
24/02:00am 27.2 NNW 11 16 1004.9 - 44.0 - - - - - - -
24/01:30am 28.1 NNW 9 12 1005.2 - 43.8 - - - - - - -
24/01:00am 28.1 N 12 15 1005.1 - 43.8 - - - - - - -
24/12:30am 27.7 N 11 15 1005.5 - 43.8 - - - - - - -
24/12:00am 27.6 N 11 19 1005.6 - 43.6 Rain - - - - - -
 
Date/Time
WST
Temp
°C
Wind Pressure Rain since
9am
mm
Weather Cloud Vis
km
Sea
Height
m
Swell
Dir  Spd
kts
Gust
kts
hPa Trend Height
m
Period
s
Dir
23/11:30pm 27.7 N 11 16 1005.9 - 43.4 - - - - - - -
23/11:00pm 26.8 NNW 14 23 1006.0 - 42.8 - - - - - - -
23/10:30pm 27.4 N 15 21 1005.7 - 41.0 - - - - - - -
23/10:00pm 26.9 N 15 23 1005.9 - 41.0 - - - - - - -
23/09:30pm 28.2 N 14 21 1005.8 - 39.2 - - - - - - -
23/09:00pm 27.8 N 14 21 1005.6 - 39.2 Rain - - - - - -
23/08:30pm 27.8 N 13 18 1005.3 - 39.0 - - - - - - -
23/08:00pm 27.5 N 15 23 1005.2 - 38.8 - - - - - - -
23/07:30pm 28.2 N 14 20 1004.7 - 38.6 - - - - - - -
23/07:00pm 27.5 N 13 18 1004.5 - 38.6 - - - - - - -
23/06:30pm 27.9 N 13 21 1004.0 - 38.6 - - - - - - -
23/06:00pm 27.8 N 14 20 1003.8 - 38.6 Recent precip. - - - - - -
23/05:30pm 27.5 N 16 24 1003.4 - 38.6 - - - - - - -
23/05:00pm 27.6 NNE 17 26 1003.2 - 36.8 - - - - - - -
23/04:45pm 27.3 N 17 27 1003.3 - 36.4 - - - - - - -
23/04:30pm 27.5 N 16 23 1003.4 - 35.2 - - - - - - -
23/04:00pm 26.9 NNE 17 26 1003.2 - 34.6 - - - - - - -
23/03:30pm 27.2 N 16 27 1003.2 - 33.0 - - - - - - -
23/03:03pm 26.9 NNE 16 29 1003.2 - 25.8 - - - - - - -
23/03:00pm 26.9 NNE 15 22 1003.0 - 25.0 Rain - - - - - -
23/02:30pm 26.8 NNE 17 27 1003.1 - 23.2 - - - - - - -
23/02:00pm 25.8 N 20 30 1003.4 - 20.0 - - - - - - -
23/01:30pm 25.5 N 19 30 1003.2 - 6.6 - - - - - - -
23/01:25pm 27.5 N 17 27 1003.2 - 2.6 - - - - - - -
23/01:16pm 28.8 NNE 18 27 1003.0 - 2.4 - - - - - - -
23/01:00pm 31.4 NE 17 27 1003.0 - 2.4 - - - - - - -
23/12:55pm 30.9 NNE 17 27 1003.1 - 2.4 - - - - - - -
23/12:30pm 30.4 NNE 16 22 1003.7 - 2.4 - - - - - - -
23/12:15pm 30.1 NNE 18 28 1003.9 - 2.4 - - - - - - -
23/12:00pm 30.0 NNE 17 25 1004.1 - 2.4 - - - - - - -
23/11:30am 29.3 NNE 15 25 1004.4 - 2.4 - - - - - - -
23/11:28am 29.2 NNE 15 25 1004.4 - 2.4 - - - - - - -
23/11:00am 28.5 NNE 14 24 1004.9 - 2.4 - - - - - - -
23/10:30am 27.3 NNE 15 25 1005.0 - 2.4 - - - - - - -
23/10:00am 27.8 NNE 17 33 1005.4 - 0.2 - - - - - - -
23/09:40am 28.4 NNE 15 25 1005.4 - 0.0 - - - - - - -
23/09:30am 28.4 NE 14 22 1005.5 - 0.0 - - - - - - -
23/09:00am 28.0 NE 12 19 1005.8 - 48.8 - - - - - - -
23/08:30am 27.1 ENE 6 9 1005.6 - 48.8 - - - - - - -
23/08:00am 26.0 E 5 8 1005.0 - 48.8 - - - - - - -
23/07:30am 25.7 NE 6 9 1004.9 - 48.8 - - - - - - -
23/07:00am 25.0 NE 6 9 1005.1 - 48.8 - - - - - - -
23/06:30am 25.2 NNE 13 19 1005.2 - 48.6 - - - - - - -
23/06:00am 25.7 N 8 12 1004.7 - 47.2 Rain - - - - - -
23/05:30am 25.4 NE 7 10 1004.8 - 42.2 - - - - - - -
23/05:00am 25.2 ENE 9 13 1004.2 - 34.2 - - - - - - -
23/04:30am 24.8 NNE 12 18 1004.6 - 32.8 - - - - - - -
23/04:16am 25.4 NE 13 25 1004.6 - 25.8 - - - - - - -
23/04:00am 25.5 NE 10 16 1004.1 - 23.6 - - - - - - -
23/03:30am 25.6 ENE 9 14 1003.9 - 19.0 - - - - - - -
23/03:00am 26.3 E 7 11 1003.4 - 3.6 - - - - - - -
23/02:30am 26.3 ENE 10 17 1003.6 - 3.6 - - - - - - -
23/02:00am 26.6 ENE 9 16 1003.8 - 3.6 - - - - - - -
23/01:30am 27.3 ENE 9 14 1004.4 - 3.6 - - - - - - -
23/01:00am 28.0 ENE 9 14 1004.7 - 3.6 - - - - - - -
23/12:30am 29.2 NE 10 16 1004.9 - 3.6 - - - - - - -
23/12:00am 29.2 NE 12 17 1005.4 - 3.6 - - - - - - -
 
Date/Time
WST
Temp
°C
Wind Pressure Rain since
9am
mm
Weather Cloud Vis
km
Sea
Height
m
Swell
Dir  Spd
kts
Gust
kts
hPa Trend Height
m
Period
s
Dir
22/11:30pm 29.4 NNE 12 17 1005.7 - 3.6 - - - - - - -
22/11:00pm 29.6 NE 14 21 1005.9 - 3.6 - - - - - - -
22/10:30pm 29.7 NNE 13 18 1006.3 - 3.6 - - - - - - -
22/10:00pm 29.8 NE 13 22 1006.7 - 3.6 - - - - - - -
22/09:30pm 29.9 NNE 12 19 1006.8 - 3.6 - - - - - - -
22/09:00pm 29.7 NNE 11 16 1006.7 - 3.6 - - - - - - -
22/08:30pm 29.3 NNE 11 17 1006.5 - 3.6 - - - - - - -
22/08:00pm 28.8 NE 8 11 1006.4 - 3.6 - - - - - - -
22/07:30pm 28.1 NE 8 11 1006.2 - 3.6 - - - - - - -
22/07:00pm 27.9 NE 15 22 1006.0 - 3.6 - - - - - - -
22/06:30pm 29.7 NNE 14 21 1005.3 - 3.6 - - - - - - -
22/06:00pm 30.0 N 14 24 1004.8 - 3.6 - - - - - - -
22/05:30pm 30.1 N 14 21 1004.2 - 3.6 - - - - - - -
22/05:00pm 30.4 N 16 21 1004.0 - 3.6 - - - - - - -
22/04:30pm 31.4 N 15 21 1004.0 - 3.6 - - - - - - -
22/04:00pm 31.6 N 14 21 1003.7 - 3.6 - - - - - - -
22/03:30pm 31.8 N 14 21 1003.6 - 3.6 - - - - - - -
22/03:00pm 31.0 NNE 15 22 1003.8 - 3.6 - - - - - - -
22/02:30pm 32.1 NNE 15 21 1003.6 - 3.6 - - - - - - -
22/02:00pm 32.0 NNE 14 22 1004.2 - 3.6 - - - - - - -
22/01:30pm 32.2 NNE 15 21 1004.7 - 3.6 - - - - - - -
22/01:00pm 32.8 NNE 14 21 1005.0 - 3.6 - - - - - - -
22/12:30pm 32.2 NNE 13 21 1005.4 - 3.6 - - - - - - -
22/12:00pm 31.1 NNE 12 19 1005.9 - 3.6 - - - - - - -
22/11:30am 29.0 ENE 9 15 1006.9 - 3.6 - - - - - - -
22/11:00am 26.0 NNE 9 13 1006.7 - 3.6 - - - - - - -
22/10:41am 26.0 NNE 16 32 1007.8 - 0.0 - - - - - - -
22/10:40am 27.4 NE 14 28 1007.8 - 0.0 - - - - - - -
22/10:30am 32.5 NE 10 14 1007.5 - 0.0 - - - - - - -
22/10:00am 31.3 NE 10 16 1007.5 - 0.0 - - - - - - -
22/09:30am 31.0 NE 11 15 1007.9 - 0.0 - - - - - - -
22/09:00am 30.3 ENE 8 13 1008.0 - 3.8 - - - - - - -
22/08:30am 29.9 ENE 6 9 1008.0 - 3.8 - - - - - - -
22/08:00am 26.7 ENE 5 7 1007.8 - 3.8 - - - - - - -
22/07:30am 24.8 ENE 6 12 1007.7 - 3.8 - - - - - - -
22/07:16am 24.1 NNE 11 26 1008.2 - 1.6 - - - - - - -
22/07:13am 25.8 NE 9 26 1008.1 - 0.4 - - - - - - -
22/07:00am 28.5 ENE 5 8 1007.3 - 0.0 - - - - - - -
22/06:30am 28.2 ENE 5 9 1006.8 - 0.0 - - - - - - -
22/06:00am 28.1 ENE 4 7 1006.6 - 0.0 - - - - - - -
22/05:30am 28.2 ENE 5 8 1006.4 - 0.0 - - - - - - -
22/05:00am 28.3 ENE 5 7 1006.2 - 0.0 - - - - - - -
22/04:30am 28.4 E 4 6 1005.8 - 0.0 - - - - - - -
22/04:00am 28.5 ESE 4 5 1005.7 - 0.0 - - - - - - -
22/03:30am 28.7 ESE 3 5 1005.9 - 0.0 - - - - - - -
22/03:00am 29.2 NE 6 7 1006.1 - 0.0 - - - - - - -
22/02:30am 29.1 NE 5 10 1006.3 - 0.0 - - - - - - -
22/02:00am 29.5 NNE 8 10 1006.3 - 0.0 - - - - - - -
22/01:30am 29.6 NE 7 9 1006.5 - 0.0 - - - - - - -
22/01:00am 29.8 NNE 7 9 1006.9 - 0.0 - - - - - - -
22/12:30am 29.8 NNE 6 8 1007.0 - 0.0 - - - - - - -
22/12:00am 29.3 NNE 5 7 1007.1 - 0.0 - - - - - - -
 
Date/Time
WST
Temp
°C
Wind Pressure Rain since
9am
mm
Weather Cloud Vis
km
Sea
Height
m
Swell
Dir  Spd
kts
Gust
kts
hPa Trend Height
m
Period
s
Dir
21/11:30pm 29.2 NNE 6 9 1007.3 - 0.0 - - - - - - -
21/11:00pm 28.7 NNE 5 7 1007.5 - 0.0 - - - - - - -
21/10:30pm 28.6 NNE 4 5 1007.6 - 0.0 - - - - - - -
21/10:00pm 28.7 NNE 5 6 1007.6 - 0.0 - - - - - - -
21/09:30pm 29.0 N 5 6 1007.6 - 0.0 - - - - - - -
21/09:00pm 29.3 NNE 4 5 1007.4 - 0.0 - - - - - - -
21/08:30pm 29.4 NNE 5 6 1007.0 - 0.0 - - - - - - -
21/08:00pm 29.3 N 4 5 1006.8 - 0.0 - - - - - - -
21/07:30pm 29.5 N 4 5 1006.5 - 0.0 - - - - - - -
21/07:00pm 30.0 N 5 6 1006.0 - 0.0 - - - - - - -
21/06:30pm 30.4 N 5 7 1005.5 - 0.0 - - - - - - -
21/06:00pm 30.8 NNW 5 7 1005.0 - 0.0 - - - - - - -
21/05:30pm 31.3 NNW 5 8 1005.1 - 0.0 - - - - - - -
21/05:00pm 32.1 N 6 9 1004.5 - 0.0 - - - - - - -
21/04:30pm 32.8 NNE 7 12 1004.8 - 0.0 - - - - - - -
21/04:00pm 32.8 N 9 13 1005.5 - 0.0 - - - - - - -
21/03:30pm 33.6 N 9 13 1005.3 - 0.0 - - - - - - -
21/03:00pm 33.4 NNW 9 13 1005.2 - 0.0 - - - - - - -
21/02:30pm 33.4 N 9 13 1005.4 - 0.0 - - - - - - -
21/02:00pm 33.5 N 9 14 1005.3 - 0.0 - - - - - - -
21/01:30pm 33.7 N 9 14 1005.5 - 0.0 - - - - - - -
21/01:00pm 34.3 NNE 7 12 1005.6 - 0.0 - - - - - - -
21/12:30pm 33.7 NNE 7 10 1005.9 - 0.0 - - - - - - -

Other Formats:

Comma delimited format used in spreadsheet applications
http://www.bom.gov.au/fwo/IDW60701/IDW60701.94200.axf

JavaScript Object Notation format (JSON) in row-major order
http://www.bom.gov.au/fwo/IDW60701/IDW60701.94200.json